sensor_id;sensor_type;location;lat;lon;timestamp;temperature;humidity
41294;DHT22;27037;52.010;4.446;2023-04-03T00:01:28;5.50;99.90
41294;DHT22;27037;52.010;4.446;2023-04-03T00:03:54;5.50;99.90
41294;DHT22;27037;52.010;4.446;2023-04-03T00:06:21;5.40;99.90
41294;DHT22;27037;52.010;4.446;2023-04-03T00:08:47;5.40;99.90
41294;DHT22;27037;52.010;4.446;2023-04-03T00:11:12;5.40;99.90
41294;DHT22;27037;52.010;4.446;2023-04-03T00:13:39;5.40;99.90
41294;DHT22;27037;52.010;4.446;2023-04-03T00:16:05;5.30;99.90
41294;DHT22;27037;52.010;4.446;2023-04-03T00:18:31;5.30;99.90
41294;DHT22;27037;52.010;4.446;2023-04-03T00:20:57;5.30;99.90
41294;DHT22;27037;52.010;4.446;2023-04-03T00:23:23;5.20;99.90
41294;DHT22;27037;52.010;4.446;2023-04-03T00:25:49;5.20;99.90
41294;DHT22;27037;52.010;4.446;2023-04-03T00:28:15;5.20;99.90
41294;DHT22;27037;52.010;4.446;2023-04-03T00:30:41;5.20;99.90
41294;DHT22;27037;52.010;4.446;2023-04-03T00:33:08;5.20;99.90
41294;DHT22;27037;52.010;4.446;2023-04-03T00:35:35;5.20;99.90
41294;DHT22;27037;52.010;4.446;2023-04-03T00:38:00;5.10;99.90
41294;DHT22;27037;52.010;4.446;2023-04-03T00:40:27;5.10;99.90
41294;DHT22;27037;52.010;4.446;2023-04-03T00:42:59;5.10;99.90
41294;DHT22;27037;52.010;4.446;2023-04-03T00:45:37;5.10;99.90
41294;DHT22;27037;52.010;4.446;2023-04-03T00:48:05;5.00;99.90
41294;DHT22;27037;52.010;4.446;2023-04-03T00:50:34;5.00;99.90
41294;DHT22;27037;52.010;4.446;2023-04-03T00:53:01;5.00;99.90
41294;DHT22;27037;52.010;4.446;2023-04-03T00:55:27;5.00;99.90
41294;DHT22;27037;52.010;4.446;2023-04-03T00:57:53;5.00;99.90
41294;DHT22;27037;52.010;4.446;2023-04-03T01:00:21;4.90;99.90
41294;DHT22;27037;52.010;4.446;2023-04-03T01:02:48;4.90;99.90
41294;DHT22;27037;52.010;4.446;2023-04-03T01:05:15;4.90;99.90
41294;DHT22;27037;52.010;4.446;2023-04-03T01:07:42;4.80;99.90
41294;DHT22;27037;52.010;4.446;2023-04-03T01:10:11;4.80;99.90
41294;DHT22;27037;52.010;4.446;2023-04-03T01:12:41;4.70;99.90
41294;DHT22;27037;52.010;4.446;2023-04-03T01:15:19;4.70;99.90
41294;DHT22;27037;52.010;4.446;2023-04-03T01:17:50;4.70;99.90
41294;DHT22;27037;52.010;4.446;2023-04-03T01:20:42;4.70;99.90
41294;DHT22;27037;52.010;4.446;2023-04-03T01:23:45;4.70;99.90
41294;DHT22;27037;52.010;4.446;2023-04-03T01:26:13;4.70;99.90
41294;DHT22;27037;52.010;4.446;2023-04-03T01:28:39;4.60;99.90
41294;DHT22;27037;52.010;4.446;2023-04-03T01:33:37;4.60;99.90
41294;DHT22;27037;52.010;4.446;2023-04-03T01:36:04;4.50;99.90
41294;DHT22;27037;52.010;4.446;2023-04-03T01:38:30;4.50;99.90
41294;DHT22;27037;52.010;4.446;2023-04-03T01:40:55;4.50;99.90
41294;DHT22;27037;52.010;4.446;2023-04-03T01:43:21;4.50;99.90
41294;DHT22;27037;52.010;4.446;2023-04-03T01:45:47;4.50;99.90
41294;DHT22;27037;52.010;4.446;2023-04-03T01:48:14;4.50;99.90
41294;DHT22;27037;52.010;4.446;2023-04-03T01:50:41;4.50;99.90
41294;DHT22;27037;52.010;4.446;2023-04-03T01:53:07;4.50;99.90
41294;DHT22;27037;52.010;4.446;2023-04-03T01:55:32;4.40;99.90
41294;DHT22;27037;52.010;4.446;2023-04-03T01:57:58;4.40;99.90
41294;DHT22;27037;52.010;4.446;2023-04-03T02:00:24;4.40;99.90
41294;DHT22;27037;52.010;4.446;2023-04-03T02:02:50;4.40;99.90
41294;DHT22;27037;52.010;4.446;2023-04-03T02:05:15;4.30;99.90
41294;DHT22;27037;52.010;4.446;2023-04-03T02:07:41;4.30;99.90
41294;DHT22;27037;52.010;4.446;2023-04-03T02:10:07;4.30;99.90
41294;DHT22;27037;52.010;4.446;2023-04-03T02:12:33;4.30;99.90
41294;DHT22;27037;52.010;4.446;2023-04-03T02:14:58;4.30;99.90
41294;DHT22;27037;52.010;4.446;2023-04-03T02:17:24;4.30;99.90
41294;DHT22;27037;52.010;4.446;2023-04-03T02:19:50;4.30;99.90
41294;DHT22;27037;52.010;4.446;2023-04-03T02:22:15;4.20;99.90
41294;DHT22;27037;52.010;4.446;2023-04-03T02:24:41;4.20;99.90
41294;DHT22;27037;52.010;4.446;2023-04-03T02:27:07;4.20;99.90
41294;DHT22;27037;52.010;4.446;2023-04-03T02:29:32;4.20;99.90
41294;DHT22;27037;52.010;4.446;2023-04-03T02:31:58;4.20;99.90
41294;DHT22;27037;52.010;4.446;2023-04-03T02:34:24;4.10;99.90
41294;DHT22;27037;52.010;4.446;2023-04-03T02:36:49;4.10;99.90
41294;DHT22;27037;52.010;4.446;2023-04-03T02:39:15;4.10;99.90
41294;DHT22;27037;52.010;4.446;2023-04-03T02:41:41;4.10;99.90
41294;DHT22;27037;52.010;4.446;2023-04-03T02:44:09;4.10;99.90
41294;DHT22;27037;52.010;4.446;2023-04-03T02:46:35;4.00;99.90
41294;DHT22;27037;52.010;4.446;2023-04-03T02:49:01;4.00;99.90
41294;DHT22;27037;52.010;4.446;2023-04-03T02:51:26;4.00;99.90
41294;DHT22;27037;52.010;4.446;2023-04-03T02:53:52;4.00;99.90
41294;DHT22;27037;52.010;4.446;2023-04-03T02:56:18;4.00;99.90
41294;DHT22;27037;52.010;4.446;2023-04-03T02:58:44;3.90;99.90
41294;DHT22;27037;52.010;4.446;2023-04-03T03:01:10;3.90;99.90
41294;DHT22;27037;52.010;4.446;2023-04-03T03:03:36;3.90;99.90
41294;DHT22;27037;52.010;4.446;2023-04-03T03:06:10;3.80;99.90
41294;DHT22;27037;52.010;4.446;2023-04-03T03:08:36;3.80;99.90
41294;DHT22;27037;52.010;4.446;2023-04-03T03:11:02;3.80;99.90
41294;DHT22;27037;52.010;4.446;2023-04-03T03:13:28;3.80;99.90
41294;DHT22;27037;52.010;4.446;2023-04-03T03:15:54;3.80;99.90
41294;DHT22;27037;52.010;4.446;2023-04-03T03:18:20;3.70;99.90
41294;DHT22;27037;52.010;4.446;2023-04-03T03:20:45;3.70;99.90
41294;DHT22;27037;52.010;4.446;2023-04-03T03:23:11;3.70;99.90
41294;DHT22;27037;52.010;4.446;2023-04-03T03:25:40;3.70;99.90
41294;DHT22;27037;52.010;4.446;2023-04-03T03:28:05;3.70;99.90
41294;DHT22;27037;52.010;4.446;2023-04-03T03:30:31;3.60;99.90
41294;DHT22;27037;52.010;4.446;2023-04-03T03:32:57;3.70;99.90
41294;DHT22;27037;52.010;4.446;2023-04-03T03:35:22;3.60;99.90
41294;DHT22;27037;52.010;4.446;2023-04-03T03:37:48;3.60;99.90
41294;DHT22;27037;52.010;4.446;2023-04-03T03:40:14;3.60;99.90
41294;DHT22;27037;52.010;4.446;2023-04-03T03:42:40;3.60;99.90
41294;DHT22;27037;52.010;4.446;2023-04-03T03:45:06;3.60;99.90
41294;DHT22;27037;52.010;4.446;2023-04-03T03:47:32;3.50;99.90
41294;DHT22;27037;52.010;4.446;2023-04-03T03:49:57;3.50;99.90
41294;DHT22;27037;52.010;4.446;2023-04-03T03:52:23;3.50;99.90
41294;DHT22;27037;52.010;4.446;2023-04-03T03:54:49;3.50;99.90
41294;DHT22;27037;52.010;4.446;2023-04-03T03:57:14;3.50;99.90
41294;DHT22;27037;52.010;4.446;2023-04-03T03:59:40;3.50;99.90
41294;DHT22;27037;52.010;4.446;2023-04-03T04:02:07;3.50;99.90
41294;DHT22;27037;52.010;4.446;2023-04-03T04:04:32;3.40;99.90
41294;DHT22;27037;52.010;4.446;2023-04-03T04:06:58;3.40;99.90
41294;DHT22;27037;52.010;4.446;2023-04-03T04:09:26;3.40;99.90
41294;DHT22;27037;52.010;4.446;2023-04-03T04:11:52;3.40;99.90
41294;DHT22;27037;52.010;4.446;2023-04-03T04:14:17;3.40;99.90
41294;DHT22;27037;52.010;4.446;2023-04-03T04:16:43;3.40;99.90
41294;DHT22;27037;52.010;4.446;2023-04-03T04:19:09;3.40;99.90
41294;DHT22;27037;52.010;4.446;2023-04-03T04:21:35;3.40;99.90
41294;DHT22;27037;52.010;4.446;2023-04-03T04:24:01;3.40;99.90
41294;DHT22;27037;52.010;4.446;2023-04-03T04:26:26;3.30;99.90
41294;DHT22;27037;52.010;4.446;2023-04-03T04:28:52;3.30;99.90
41294;DHT22;27037;52.010;4.446;2023-04-03T04:31:17;3.30;99.90
41294;DHT22;27037;52.010;4.446;2023-04-03T04:33:43;3.30;99.90
41294;DHT22;27037;52.010;4.446;2023-04-03T04:36:09;3.20;99.90
41294;DHT22;27037;52.010;4.446;2023-04-03T04:38:34;3.20;99.90
41294;DHT22;27037;52.010;4.446;2023-04-03T04:41:00;3.10;99.90
41294;DHT22;27037;52.010;4.446;2023-04-03T04:43:26;3.10;99.90
41294;DHT22;27037;52.010;4.446;2023-04-03T04:48:30;3.10;99.90
41294;DHT22;27037;52.010;4.446;2023-04-03T04:50:56;3.10;99.90
41294;DHT22;27037;52.010;4.446;2023-04-03T04:53:22;3.10;99.90
41294;DHT22;27037;52.010;4.446;2023-04-03T04:55:47;3.10;99.90
41294;DHT22;27037;52.010;4.446;2023-04-03T04:58:13;3.10;99.90
41294;DHT22;27037;52.010;4.446;2023-04-03T05:00:39;3.00;99.90
41294;DHT22;27037;52.010;4.446;2023-04-03T05:03:05;3.00;99.90
41294;DHT22;27037;52.010;4.446;2023-04-03T05:05:30;3.00;99.90
41294;DHT22;27037;52.010;4.446;2023-04-03T05:07:56;3.00;99.90
41294;DHT22;27037;52.010;4.446;2023-04-03T05:10:21;3.00;99.90
41294;DHT22;27037;52.010;4.446;2023-04-03T05:12:47;2.90;99.90
41294;DHT22;27037;52.010;4.446;2023-04-03T05:15:13;2.90;99.90
41294;DHT22;27037;52.010;4.446;2023-04-03T05:17:38;2.90;99.90
41294;DHT22;27037;52.010;4.446;2023-04-03T05:20:04;3.00;99.90
41294;DHT22;27037;52.010;4.446;2023-04-03T05:22:30;2.90;99.90
41294;DHT22;27037;52.010;4.446;2023-04-03T05:24:56;2.90;99.90
41294;DHT22;27037;52.010;4.446;2023-04-03T05:27:22;2.90;99.90
41294;DHT22;27037;52.010;4.446;2023-04-03T05:29:50;2.90;99.90
41294;DHT22;27037;52.010;4.446;2023-04-03T05:32:16;2.90;99.90
41294;DHT22;27037;52.010;4.446;2023-04-03T05:34:42;2.90;99.90
41294;DHT22;27037;52.010;4.446;2023-04-03T05:37:07;2.90;99.90
41294;DHT22;27037;52.010;4.446;2023-04-03T05:39:33;2.90;99.90
41294;DHT22;27037;52.010;4.446;2023-04-03T05:41:59;2.90;99.90
41294;DHT22;27037;52.010;4.446;2023-04-03T05:44:25;2.90;99.90
41294;DHT22;27037;52.010;4.446;2023-04-03T05:46:50;2.90;99.90
41294;DHT22;27037;52.010;4.446;2023-04-03T05:49:16;2.90;99.90
41294;DHT22;27037;52.010;4.446;2023-04-03T05:51:42;2.90;99.90
41294;DHT22;27037;52.010;4.446;2023-04-03T05:54:16;2.90;99.90
41294;DHT22;27037;52.010;4.446;2023-04-03T05:56:43;3.00;99.90
41294;DHT22;27037;52.010;4.446;2023-04-03T05:59:09;2.90;99.90
41294;DHT22;27037;52.010;4.446;2023-04-03T06:01:34;3.00;99.90
41294;DHT22;27037;52.010;4.446;2023-04-03T06:04:03;3.00;99.90
41294;DHT22;27037;52.010;4.446;2023-04-03T06:06:54;3.00;99.90
41294;DHT22;27037;52.010;4.446;2023-04-03T06:09:24;3.00;99.90
41294;DHT22;27037;52.010;4.446;2023-04-03T06:11:50;3.00;99.90
41294;DHT22;27037;52.010;4.446;2023-04-03T06:14:15;3.00;99.90
41294;DHT22;27037;52.010;4.446;2023-04-03T06:16:45;3.00;99.90
41294;DHT22;27037;52.010;4.446;2023-04-03T06:19:13;3.10;99.90
41294;DHT22;27037;52.010;4.446;2023-04-03T06:21:39;3.10;99.90
41294;DHT22;27037;52.010;4.446;2023-04-03T06:24:05;3.10;99.90
41294;DHT22;27037;52.010;4.446;2023-04-03T06:26:33;3.10;99.90
41294;DHT22;27037;52.010;4.446;2023-04-03T06:29:00;3.20;99.90
41294;DHT22;27037;52.010;4.446;2023-04-03T06:31:25;3.20;99.90
41294;DHT22;27037;52.010;4.446;2023-04-03T06:33:51;3.20;99.90
41294;DHT22;27037;52.010;4.446;2023-04-03T06:36:20;3.30;99.90
41294;DHT22;27037;52.010;4.446;2023-04-03T06:38:46;3.30;99.90
41294;DHT22;27037;52.010;4.446;2023-04-03T06:41:12;3.30;99.90
41294;DHT22;27037;52.010;4.446;2023-04-03T06:43:37;3.30;99.90
41294;DHT22;27037;52.010;4.446;2023-04-03T06:46:03;3.40;99.90
41294;DHT22;27037;52.010;4.446;2023-04-03T06:48:29;3.40;99.90
41294;DHT22;27037;52.010;4.446;2023-04-03T06:50:55;3.40;99.90
41294;DHT22;27037;52.010;4.446;2023-04-03T06:53:21;3.50;99.90
41294;DHT22;27037;52.010;4.446;2023-04-03T06:55:47;3.50;99.90
41294;DHT22;27037;52.010;4.446;2023-04-03T06:58:12;3.50;99.90
41294;DHT22;27037;52.010;4.446;2023-04-03T07:00:39;3.60;99.90
41294;DHT22;27037;52.010;4.446;2023-04-03T07:03:04;3.60;99.90
41294;DHT22;27037;52.010;4.446;2023-04-03T07:05:30;3.60;99.90
41294;DHT22;27037;52.010;4.446;2023-04-03T07:07:56;3.70;99.90
41294;DHT22;27037;52.010;4.446;2023-04-03T07:10:22;3.70;99.90
41294;DHT22;27037;52.010;4.446;2023-04-03T07:12:47;3.70;99.90
41294;DHT22;27037;52.010;4.446;2023-04-03T07:15:13;3.80;99.90
41294;DHT22;27037;52.010;4.446;2023-04-03T07:17:42;3.90;99.90
41294;DHT22;27037;52.010;4.446;2023-04-03T07:20:09;3.90;99.90
41294;DHT22;27037;52.010;4.446;2023-04-03T07:22:35;4.00;99.90
41294;DHT22;27037;52.010;4.446;2023-04-03T07:25:00;4.00;99.90
41294;DHT22;27037;52.010;4.446;2023-04-03T07:27:26;4.10;99.90
41294;DHT22;27037;52.010;4.446;2023-04-03T07:29:55;4.20;99.90
41294;DHT22;27037;52.010;4.446;2023-04-03T07:32:21;4.30;99.90
41294;DHT22;27037;52.010;4.446;2023-04-03T07:34:47;4.30;99.90
41294;DHT22;27037;52.010;4.446;2023-04-03T07:37:12;4.40;99.90
41294;DHT22;27037;52.010;4.446;2023-04-03T07:39:38;4.40;99.90
41294;DHT22;27037;52.010;4.446;2023-04-03T07:42:04;4.50;99.90
41294;DHT22;27037;52.010;4.446;2023-04-03T07:44:29;4.60;99.90
41294;DHT22;27037;52.010;4.446;2023-04-03T07:46:56;4.60;99.90
41294;DHT22;27037;52.010;4.446;2023-04-03T07:49:22;4.70;99.90
41294;DHT22;27037;52.010;4.446;2023-04-03T07:51:49;4.80;99.90
41294;DHT22;27037;52.010;4.446;2023-04-03T07:54:15;4.90;99.90
41294;DHT22;27037;52.010;4.446;2023-04-03T07:56:41;5.00;99.90
41294;DHT22;27037;52.010;4.446;2023-04-03T07:59:08;5.10;99.90
41294;DHT22;27037;52.010;4.446;2023-04-03T08:01:34;5.20;99.90
41294;DHT22;27037;52.010;4.446;2023-04-03T08:04:00;5.30;99.90
41294;DHT22;27037;52.010;4.446;2023-04-03T08:06:26;5.40;99.90
41294;DHT22;27037;52.010;4.446;2023-04-03T08:08:51;5.50;99.90
41294;DHT22;27037;52.010;4.446;2023-04-03T08:11:17;5.70;99.90
41294;DHT22;27037;52.010;4.446;2023-04-03T08:13:44;5.80;99.90
41294;DHT22;27037;52.010;4.446;2023-04-03T08:16:17;5.90;99.90
41294;DHT22;27037;52.010;4.446;2023-04-03T08:18:43;6.10;99.90
41294;DHT22;27037;52.010;4.446;2023-04-03T08:21:10;6.20;99.90
41294;DHT22;27037;52.010;4.446;2023-04-03T08:23:36;6.40;99.90
41294;DHT22;27037;52.010;4.446;2023-04-03T08:26:07;6.50;99.90
41294;DHT22;27037;52.010;4.446;2023-04-03T08:28:32;6.60;99.90
41294;DHT22;27037;52.010;4.446;2023-04-03T08:31:03;6.70;99.90
41294;DHT22;27037;52.010;4.446;2023-04-03T08:33:31;6.80;99.90
41294;DHT22;27037;52.010;4.446;2023-04-03T08:35:56;6.90;99.90
41294;DHT22;27037;52.010;4.446;2023-04-03T08:38:22;7.10;99.90
41294;DHT22;27037;52.010;4.446;2023-04-03T08:40:47;7.20;99.90
41294;DHT22;27037;52.010;4.446;2023-04-03T08:46:19;7.40;99.90
41294;DHT22;27037;52.010;4.446;2023-04-03T08:48:49;7.60;99.90
41294;DHT22;27037;52.010;4.446;2023-04-03T08:51:18;7.70;99.90
41294;DHT22;27037;52.010;4.446;2023-04-03T08:54:04;7.80;99.90
41294;DHT22;27037;52.010;4.446;2023-04-03T08:56:33;8.00;99.90
41294;DHT22;27037;52.010;4.446;2023-04-03T08:59:04;8.10;99.90
41294;DHT22;27037;52.010;4.446;2023-04-03T09:01:36;8.10;99.90
41294;DHT22;27037;52.010;4.446;2023-04-03T09:04:10;8.30;99.90
41294;DHT22;27037;52.010;4.446;2023-04-03T09:06:38;8.40;99.90
41294;DHT22;27037;52.010;4.446;2023-04-03T09:14:50;8.50;99.90
41294;DHT22;27037;52.010;4.446;2023-04-03T09:22:31;8.70;99.90
41294;DHT22;27037;52.010;4.446;2023-04-03T09:25:42;8.80;99.90
41294;DHT22;27037;52.010;4.446;2023-04-03T09:27:50;8.80;99.90
41294;DHT22;27037;52.010;4.446;2023-04-03T09:30:21;9.00;99.90
41294;DHT22;27037;52.010;4.446;2023-04-03T09:32:49;9.10;99.90
41294;DHT22;27037;52.010;4.446;2023-04-03T09:35:29;9.30;99.90
41294;DHT22;27037;52.010;4.446;2023-04-03T09:40:37;9.40;99.90
41294;DHT22;27037;52.010;4.446;2023-04-03T09:43:23;9.50;99.90
41294;DHT22;27037;52.010;4.446;2023-04-03T09:45:50;9.60;97.10
41294;DHT22;27037;52.010;4.446;2023-04-03T09:48:19;9.60;97.80
41294;DHT22;27037;52.010;4.446;2023-04-03T09:53:42;9.80;95.70
41294;DHT22;27037;52.010;4.446;2023-04-03T09:58:49;9.90;93.80
41294;DHT22;27037;52.010;4.446;2023-04-03T10:04:15;10.00;93.00
41294;DHT22;27037;52.010;4.446;2023-04-03T10:06:50;10.10;90.30
41294;DHT22;27037;52.010;4.446;2023-04-03T10:09:44;10.10;90.60
41294;DHT22;27037;52.010;4.446;2023-04-03T10:12:21;10.10;88.40
41294;DHT22;27037;52.010;4.446;2023-04-03T10:23:28;10.10;85.70
41294;DHT22;27037;52.010;4.446;2023-04-03T10:29:01;10.20;85.60
41294;DHT22;27037;52.010;4.446;2023-04-03T10:31:45;10.30;84.40
41294;DHT22;27037;52.010;4.446;2023-04-03T10:34:28;10.40;83.80
41294;DHT22;27037;52.010;4.446;2023-04-03T10:42:49;10.50;80.30
41294;DHT22;27037;52.010;4.446;2023-04-03T10:47:54;10.50;81.30
41294;DHT22;27037;52.010;4.446;2023-04-03T10:53:10;10.80;80.10
41294;DHT22;27037;52.010;4.446;2023-04-03T10:58:06;11.00;74.20
41294;DHT22;27037;52.010;4.446;2023-04-03T11:00:47;11.00;70.30
41294;DHT22;27037;52.010;4.446;2023-04-03T11:03:34;11.00;67.20
41294;DHT22;27037;52.010;4.446;2023-04-03T11:06:04;11.00;68.10
41294;DHT22;27037;52.010;4.446;2023-04-03T11:08:54;11.00;66.70
41294;DHT22;27037;52.010;4.446;2023-04-03T11:11:29;11.00;66.40
41294;DHT22;27037;52.010;4.446;2023-04-03T11:14:01;11.00;64.50
41294;DHT22;27037;52.010;4.446;2023-04-03T11:16:31;11.10;64.30
41294;DHT22;27037;52.010;4.446;2023-04-03T11:21:54;11.10;64.00
41294;DHT22;27037;52.010;4.446;2023-04-03T11:24:25;11.10;64.50
41294;DHT22;27037;52.010;4.446;2023-04-03T11:26:54;11.30;65.00
41294;DHT22;27037;52.010;4.446;2023-04-03T11:29:24;11.40;64.50
41294;DHT22;27037;52.010;4.446;2023-04-03T11:32:16;11.50;66.00
41294;DHT22;27037;52.010;4.446;2023-04-03T11:34:48;11.60;65.00
41294;DHT22;27037;52.010;4.446;2023-04-03T11:37:33;11.60;64.20
41294;DHT22;27037;52.010;4.446;2023-04-03T11:42:37;11.60;60.60
41294;DHT22;27037;52.010;4.446;2023-04-03T11:47:49;11.70;62.00
41294;DHT22;27037;52.010;4.446;2023-04-03T12:24:30;12.30;54.00
41294;DHT22;27037;52.010;4.446;2023-04-03T12:29:46;12.30;52.30
41294;DHT22;27037;52.010;4.446;2023-04-03T12:32:40;12.30;52.80
41294;DHT22;27037;52.010;4.446;2023-04-03T12:46:53;12.30;53.20
41294;DHT22;27037;52.010;4.446;2023-04-03T12:49:35;12.40;53.00
41294;DHT22;27037;52.010;4.446;2023-04-03T12:52:05;12.40;52.60
41294;DHT22;27037;52.010;4.446;2023-04-03T12:54:38;12.40;53.30
41294;DHT22;27037;52.010;4.446;2023-04-03T12:57:19;12.50;54.90
41294;DHT22;27037;52.010;4.446;2023-04-03T12:59:46;12.50;53.40
41294;DHT22;27037;52.010;4.446;2023-04-03T13:02:28;12.50;54.20
41294;DHT22;27037;52.010;4.446;2023-04-03T13:05:08;12.50;53.70
41294;DHT22;27037;52.010;4.446;2023-04-03T13:07:36;12.50;54.40
41294;DHT22;27037;52.010;4.446;2023-04-03T13:12:45;12.60;54.80
41294;DHT22;27037;52.010;4.446;2023-04-03T13:15:26;12.60;55.20
41294;DHT22;27037;52.010;4.446;2023-04-03T13:17:53;12.70;54.90
41294;DHT22;27037;52.010;4.446;2023-04-03T13:22:58;12.70;55.10
41294;DHT22;27037;52.010;4.446;2023-04-03T13:25:28;12.70;55.30
41294;DHT22;27037;52.010;4.446;2023-04-03T13:27:55;12.60;55.60
41294;DHT22;27037;52.010;4.446;2023-04-03T13:30:29;12.60;55.80
41294;DHT22;27037;52.010;4.446;2023-04-03T13:32:58;12.70;55.60
41294;DHT22;27037;52.010;4.446;2023-04-03T13:35:32;12.70;56.20
41294;DHT22;27037;52.010;4.446;2023-04-03T13:38:02;12.70;56.20
41294;DHT22;27037;52.010;4.446;2023-04-03T13:40:29;12.70;55.60
41294;DHT22;27037;52.010;4.446;2023-04-03T13:43:03;12.70;56.80
41294;DHT22;27037;52.010;4.446;2023-04-03T13:45:30;12.70;57.10
41294;DHT22;27037;52.010;4.446;2023-04-03T13:48:17;12.80;57.30
41294;DHT22;27037;52.010;4.446;2023-04-03T13:51:16;12.80;57.00
41294;DHT22;27037;52.010;4.446;2023-04-03T13:53:48;12.90;56.90
41294;DHT22;27037;52.010;4.446;2023-04-03T13:56:37;12.80;56.30
41294;DHT22;27037;52.010;4.446;2023-04-03T14:01:49;13.00;57.10
41294;DHT22;27037;52.010;4.446;2023-04-03T14:04:19;13.00;56.60
41294;DHT22;27037;52.010;4.446;2023-04-03T14:06:46;13.10;57.20
41294;DHT22;27037;52.010;4.446;2023-04-03T14:09:12;13.10;57.00
41294;DHT22;27037;52.010;4.446;2023-04-03T14:11:39;13.20;56.50
41294;DHT22;27037;52.010;4.446;2023-04-03T14:14:18;13.30;57.10
41294;DHT22;27037;52.010;4.446;2023-04-03T14:16:48;13.30;56.10
41294;DHT22;27037;52.010;4.446;2023-04-03T14:19:27;13.40;56.10
41294;DHT22;27037;52.010;4.446;2023-04-03T14:21:54;13.40;54.70
41294;DHT22;27037;52.010;4.446;2023-04-03T14:24:21;13.30;54.60
41294;DHT22;27037;52.010;4.446;2023-04-03T14:26:49;13.40;55.00
41294;DHT22;27037;52.010;4.446;2023-04-03T14:29:18;13.30;54.20
41294;DHT22;27037;52.010;4.446;2023-04-03T14:31:45;13.30;54.60
41294;DHT22;27037;52.010;4.446;2023-04-03T14:34:14;13.30;54.60
41294;DHT22;27037;52.010;4.446;2023-04-03T14:36:41;13.30;54.50
41294;DHT22;27037;52.010;4.446;2023-04-03T14:39:11;13.40;54.60
41294;DHT22;27037;52.010;4.446;2023-04-03T14:41:41;13.40;54.70
41294;DHT22;27037;52.010;4.446;2023-04-03T14:44:07;13.40;55.10
41294;DHT22;27037;52.010;4.446;2023-04-03T14:46:35;13.40;55.90
41294;DHT22;27037;52.010;4.446;2023-04-03T14:49:03;13.40;55.10
41294;DHT22;27037;52.010;4.446;2023-04-03T14:51:33;13.40;55.00
41294;DHT22;27037;52.010;4.446;2023-04-03T14:53:59;13.30;54.70
41294;DHT22;27037;52.010;4.446;2023-04-03T14:56:26;13.20;54.50
41294;DHT22;27037;52.010;4.446;2023-04-03T14:59:00;13.20;54.90
41294;DHT22;27037;52.010;4.446;2023-04-03T15:01:27;13.30;55.50
41294;DHT22;27037;52.010;4.446;2023-04-03T15:03:53;13.30;55.00
41294;DHT22;27037;52.010;4.446;2023-04-03T15:06:19;13.40;55.90
41294;DHT22;27037;52.010;4.446;2023-04-03T15:08:47;13.40;55.00
41294;DHT22;27037;52.010;4.446;2023-04-03T15:11:13;13.40;54.70
41294;DHT22;27037;52.010;4.446;2023-04-03T15:13:40;13.30;54.90
41294;DHT22;27037;52.010;4.446;2023-04-03T15:16:14;13.30;54.00
41294;DHT22;27037;52.010;4.446;2023-04-03T15:18:40;13.30;54.60
41294;DHT22;27037;52.010;4.446;2023-04-03T15:21:06;13.30;55.00
41294;DHT22;27037;52.010;4.446;2023-04-03T15:23:32;13.30;55.60
41294;DHT22;27037;52.010;4.446;2023-04-03T15:25:57;13.30;55.10
41294;DHT22;27037;52.010;4.446;2023-04-03T15:28:36;13.40;55.30
41294;DHT22;27037;52.010;4.446;2023-04-03T15:31:03;13.40;55.70
41294;DHT22;27037;52.010;4.446;2023-04-03T15:33:30;13.40;55.00
41294;DHT22;27037;52.010;4.446;2023-04-03T15:35:56;13.40;54.50
41294;DHT22;27037;52.010;4.446;2023-04-03T15:38:22;13.40;55.00
41294;DHT22;27037;52.010;4.446;2023-04-03T15:40:47;13.40;54.50
41294;DHT22;27037;52.010;4.446;2023-04-03T15:43:14;13.30;54.60
41294;DHT22;27037;52.010;4.446;2023-04-03T15:45:40;13.20;54.50
41294;DHT22;27037;52.010;4.446;2023-04-03T15:48:07;13.10;54.70
41294;DHT22;27037;52.010;4.446;2023-04-03T15:50:33;13.10;55.60
41294;DHT22;27037;52.010;4.446;2023-04-03T15:52:59;13.00;55.40
41294;DHT22;27037;52.010;4.446;2023-04-03T15:55:31;13.00;55.50
41294;DHT22;27037;52.010;4.446;2023-04-03T15:57:58;13.00;55.00
41294;DHT22;27037;52.010;4.446;2023-04-03T16:00:24;13.00;54.90
41294;DHT22;27037;52.010;4.446;2023-04-03T16:02:55;12.90;54.50
41294;DHT22;27037;52.010;4.446;2023-04-03T16:05:22;12.90;55.10
41294;DHT22;27037;52.010;4.446;2023-04-03T16:07:48;12.80;54.20
41294;DHT22;27037;52.010;4.446;2023-04-03T16:10:16;12.70;54.30
41294;DHT22;27037;52.010;4.446;2023-04-03T16:12:42;12.60;54.70
41294;DHT22;27037;52.010;4.446;2023-04-03T16:15:08;12.60;54.90
41294;DHT22;27037;52.010;4.446;2023-04-03T16:17:35;12.60;55.10
41294;DHT22;27037;52.010;4.446;2023-04-03T16:20:03;12.60;55.10
41294;DHT22;27037;52.010;4.446;2023-04-03T16:22:34;12.50;56.00
41294;DHT22;27037;52.010;4.446;2023-04-03T16:25:00;12.50;55.70
41294;DHT22;27037;52.010;4.446;2023-04-03T16:27:26;12.40;55.40
41294;DHT22;27037;52.010;4.446;2023-04-03T16:29:54;12.30;55.60
41294;DHT22;27037;52.010;4.446;2023-04-03T16:32:20;12.30;55.90
41294;DHT22;27037;52.010;4.446;2023-04-03T16:34:46;12.20;56.10
41294;DHT22;27037;52.010;4.446;2023-04-03T16:37:12;12.20;56.30
41294;DHT22;27037;52.010;4.446;2023-04-03T16:39:37;12.10;56.10
41294;DHT22;27037;52.010;4.446;2023-04-03T16:42:03;12.00;56.00
41294;DHT22;27037;52.010;4.446;2023-04-03T16:44:29;11.90;56.30
41294;DHT22;27037;52.010;4.446;2023-04-03T16:46:54;11.90;56.60
41294;DHT22;27037;52.010;4.446;2023-04-03T16:49:20;11.80;56.50
41294;DHT22;27037;52.010;4.446;2023-04-03T16:51:47;11.70;57.00
41294;DHT22;27037;52.010;4.446;2023-04-03T16:54:13;11.70;56.80
41294;DHT22;27037;52.010;4.446;2023-04-03T16:56:39;11.60;56.60
41294;DHT22;27037;52.010;4.446;2023-04-03T16:59:05;11.50;57.10
41294;DHT22;27037;52.010;4.446;2023-04-03T17:01:31;11.40;57.10
41294;DHT22;27037;52.010;4.446;2023-04-03T17:03:57;11.30;57.60
41294;DHT22;27037;52.010;4.446;2023-04-03T17:06:23;11.20;58.10
41294;DHT22;27037;52.010;4.446;2023-04-03T17:08:49;11.10;58.20
41294;DHT22;27037;52.010;4.446;2023-04-03T17:11:16;11.10;58.90
41294;DHT22;27037;52.010;4.446;2023-04-03T17:13:42;11.10;59.20
41294;DHT22;27037;52.010;4.446;2023-04-03T17:16:10;11.10;59.80
41294;DHT22;27037;52.010;4.446;2023-04-03T17:18:36;10.90;60.00
41294;DHT22;27037;52.010;4.446;2023-04-03T17:21:03;10.80;60.10
41294;DHT22;27037;52.010;4.446;2023-04-03T17:23:29;10.70;60.80
41294;DHT22;27037;52.010;4.446;2023-04-03T17:25:55;10.60;61.70
41294;DHT22;27037;52.010;4.446;2023-04-03T17:28:21;10.50;62.80
41294;DHT22;27037;52.010;4.446;2023-04-03T17:30:53;10.40;63.10
41294;DHT22;27037;52.010;4.446;2023-04-03T17:33:19;10.30;63.80
41294;DHT22;27037;52.010;4.446;2023-04-03T17:35:45;10.20;64.00
41294;DHT22;27037;52.010;4.446;2023-04-03T17:38:10;10.10;64.20
41294;DHT22;27037;52.010;4.446;2023-04-03T17:40:36;10.10;64.90
41294;DHT22;27037;52.010;4.446;2023-04-03T17:43:01;10.00;64.40
41294;DHT22;27037;52.010;4.446;2023-04-03T17:45:27;9.90;65.50
41294;DHT22;27037;52.010;4.446;2023-04-03T17:47:52;9.80;65.10